createdAt,value
2017-07-06T00:00:03.140Z,97901.27
2017-07-06T00:02:30.609Z,97897.39
2017-07-06T00:04:58.031Z,97900.61
2017-07-06T00:07:25.464Z,97898.35
2017-07-06T00:09:52.869Z,97897.96
2017-07-06T00:12:20.316Z,97895.78
2017-07-06T00:14:47.720Z,97893.58
2017-07-06T00:17:15.179Z,97893.45
2017-07-06T00:19:42.656Z,97892.88
2017-07-06T00:22:10.096Z,97893.09
2017-07-06T00:24:37.504Z,97887.45
2017-07-06T00:27:04.942Z,97885.59
2017-07-06T00:29:32.352Z,97883.16
2017-07-06T00:31:59.832Z,97883.09
2017-07-06T00:34:27.304Z,97876.52
2017-07-06T00:36:54.723Z,97880.14
2017-07-06T00:39:22.172Z,97873.44
2017-07-06T00:41:49.582Z,97875.77
2017-07-06T00:44:16.985Z,97874.37
2017-07-06T00:46:44.425Z,97879.67
2017-07-06T00:49:11.853Z,97871.79
2017-07-06T00:51:39.279Z,97875.34
2017-07-06T00:54:07.315Z,97865.83
2017-07-06T00:56:34.820Z,97871.42
2017-07-06T00:59:02.288Z,97874.03
2017-07-06T01:01:29.705Z,97879.30
2017-07-06T01:03:57.153Z,97879.84
2017-07-06T01:06:24.585Z,97879.94
2017-07-06T01:08:52.765Z,97880.23
2017-07-06T01:11:20.205Z,97882.92
2017-07-06T01:13:47.656Z,97882.97
2017-07-06T01:16:15.114Z,97885.25
2017-07-06T01:18:42.512Z,97882.00
2017-07-06T01:21:09.922Z,97879.34
2017-07-06T01:23:37.384Z,97872.39
2017-07-06T01:26:04.820Z,97877.91
2017-07-06T01:28:32.238Z,97883.38
2017-07-06T01:30:59.665Z,97881.63
2017-07-06T01:33:27.079Z,97875.00
2017-07-06T01:35:54.507Z,97879.62
2017-07-06T01:38:21.948Z,97879.27
2017-07-06T01:40:49.374Z,97882.34
2017-07-06T01:43:17.657Z,97875.52
2017-07-06T01:45:45.106Z,97880.75
2017-07-06T01:48:12.542Z,97881.26
2017-07-06T01:50:39.972Z,97884.97
2017-07-06T01:53:07.375Z,97877.51
2017-07-06T01:55:34.820Z,97877.78
2017-07-06T01:58:02.304Z,97878.41
2017-07-06T02:00:29.733Z,97878.25
2017-07-06T02:02:57.177Z,97886.45
2017-07-06T02:05:24.780Z,97882.27
2017-07-06T02:07:52.183Z,97880.75
2017-07-06T02:10:19.637Z,97876.67
2017-07-06T02:12:47.076Z,97886.96
2017-07-06T02:15:14.496Z,97881.05
2017-07-06T02:17:41.977Z,97882.98
2017-07-06T02:20:09.377Z,97881.16
2017-07-06T02:22:36.820Z,97887.59
2017-07-06T02:25:04.273Z,97878.77
2017-07-06T02:27:31.697Z,97884.45
2017-07-06T02:29:59.175Z,97878.41
2017-07-06T02:32:26.627Z,97887.73
2017-07-06T02:34:54.104Z,97889.04
2017-07-06T02:37:21.519Z,97888.81
2017-07-06T02:39:48.930Z,97891.06
2017-07-06T02:42:17.171Z,97892.06
2017-07-06T02:44:44.604Z,97893.87
2017-07-06T02:47:12.044Z,97894.83
2017-07-06T02:49:39.458Z,97899.46
2017-07-06T02:52:07.040Z,97899.91
2017-07-06T02:54:34.496Z,97904.05
2017-07-06T02:57:01.920Z,97898.66
2017-07-06T02:59:29.327Z,97902.53
2017-07-06T03:01:56.800Z,97905.59
2017-07-06T03:04:24.216Z,97908.27
2017-07-06T03:06:51.655Z,97910.30
2017-07-06T03:09:19.072Z,97904.95
2017-07-06T03:11:46.524Z,97912.75
2017-07-06T03:14:13.925Z,97917.34
2017-07-06T03:16:41.341Z,97918.02
2017-07-06T03:19:08.896Z,97916.18
2017-07-06T03:21:36.304Z,97920.16
2017-07-06T03:24:04.361Z,97919.47
2017-07-06T03:26:31.756Z,97920.98
2017-07-06T03:28:59.221Z,97922.09
2017-07-06T03:31:26.649Z,97919.04
2017-07-06T03:33:54.053Z,97921.06
2017-07-06T03:36:21.456Z,97924.71
2017-07-06T03:38:48.891Z,97928.12
2017-07-06T03:41:16.325Z,97927.95
2017-07-06T03:43:43.813Z,97929.23
2017-07-06T03:46:11.237Z,97928.11
2017-07-06T03:48:38.652Z,97925.48
2017-07-06T03:51:06.094Z,97927.05
2017-07-06T03:53:33.493Z,97928.59
2017-07-06T03:56:00.943Z,97925.02
2017-07-06T03:58:28.344Z,97930.59
2017-07-06T04:00:55.937Z,97938.71
2017-07-06T04:03:23.477Z,97940.20
2017-07-06T04:05:50.965Z,97945.50
2017-07-06T04:08:18.360Z,97947.39
2017-07-06T04:10:45.766Z,97952.34
2017-07-06T04:13:13.201Z,97953.41
2017-07-06T04:15:40.611Z,97947.66
2017-07-06T04:18:08.032Z,97958.34
2017-07-06T04:20:35.546Z,97956.52
2017-07-06T04:23:03.005Z,97956.16
2017-07-06T04:25:30.464Z,97959.47
2017-07-06T04:27:57.909Z,97959.47
2017-07-06T04:30:25.396Z,97947.50
2017-07-06T04:32:52.849Z,97948.87
2017-07-06T04:35:20.278Z,97957.30
2017-07-06T04:37:47.765Z,97955.47
2017-07-06T04:40:15.188Z,97955.76
2017-07-06T04:42:42.636Z,97961.56
2017-07-06T04:45:10.044Z,97961.50
2017-07-06T04:47:37.485Z,97962.59
2017-07-06T04:50:04.923Z,97964.02
2017-07-06T04:52:32.336Z,97962.89
2017-07-06T04:54:59.784Z,97961.69
2017-07-06T04:57:27.219Z,97958.01
2017-07-06T04:59:54.664Z,97967.73
2017-07-06T05:02:22.080Z,97964.91
2017-07-06T05:04:49.579Z,97967.97
2017-07-06T05:07:16.997Z,97962.96
2017-07-06T05:09:44.426Z,97962.38
2017-07-06T05:12:11.859Z,97961.30
2017-07-06T05:14:39.301Z,97959.28
2017-07-06T05:17:06.772Z,97960.55
2017-07-06T05:19:34.197Z,97966.95
2017-07-06T05:22:01.659Z,97970.02
2017-07-06T05:24:29.109Z,97965.95
2017-07-06T05:26:56.506Z,97971.72
2017-07-06T05:29:23.940Z,97970.86
2017-07-06T05:31:52.005Z,97965.67
2017-07-06T05:34:19.505Z,97961.24
2017-07-06T05:36:46.984Z,97964.44
2017-07-06T05:39:14.403Z,97968.32
2017-07-06T05:41:41.830Z,97968.14
2017-07-06T05:44:09.288Z,97971.67
2017-07-06T05:46:36.696Z,97963.38
2017-07-06T05:49:04.169Z,97961.22
2017-07-06T05:51:31.681Z,97964.39
2017-07-06T05:53:59.284Z,97962.77
2017-07-06T05:56:26.792Z,97964.68
2017-07-06T05:58:54.276Z,97958.56
2017-07-06T06:01:21.793Z,97964.91
2017-07-06T06:03:49.283Z,97966.16
2017-07-06T06:09:12.420Z,97959.84
2017-07-06T06:11:39.825Z,97960.64
2017-07-06T06:14:07.259Z,97968.04
2017-07-06T06:16:34.711Z,97965.02
2017-07-06T06:19:02.134Z,97970.00
2017-07-06T06:21:29.596Z,97973.37
2017-07-06T06:23:57.045Z,97975.22
2017-07-06T06:26:24.459Z,97979.19
2017-07-06T06:28:52.236Z,97981.92
2017-07-06T06:31:19.694Z,97982.45
2017-07-06T06:33:47.192Z,97986.36
2017-07-06T06:36:14.789Z,97986.12
2017-07-06T06:38:42.361Z,97989.72
2017-07-06T06:41:09.776Z,97979.30
2017-07-06T06:43:37.193Z,97981.83
2017-07-06T06:46:04.625Z,97978.48
2017-07-06T06:48:32.062Z,97978.55
2017-07-06T06:50:59.483Z,97975.47
2017-07-06T06:53:26.927Z,97972.94
2017-07-06T06:55:54.364Z,97972.84
2017-07-06T06:58:21.796Z,97975.95
2017-07-06T07:00:49.267Z,97974.80
2017-07-06T07:03:16.908Z,97978.70
2017-07-06T07:05:44.349Z,97974.41
2017-07-06T07:08:11.784Z,97970.15
2017-07-06T07:10:39.195Z,97974.19
2017-07-06T07:13:06.664Z,97975.16
2017-07-06T07:15:34.117Z,97969.84
2017-07-06T07:18:01.541Z,97975.22
2017-07-06T07:20:28.977Z,97970.12
2017-07-06T07:22:56.388Z,97971.38
2017-07-06T07:25:23.802Z,97967.78
2017-07-06T07:27:51.229Z,97970.14
2017-07-06T07:30:18.671Z,97968.53
2017-07-06T07:32:46.141Z,97969.55
2017-07-06T07:35:13.581Z,97969.80
2017-07-06T07:37:40.995Z,97966.36
2017-07-06T07:40:08.456Z,97974.08
2017-07-06T07:42:35.867Z,97973.98
2017-07-06T07:45:03.303Z,97970.98
2017-07-06T07:47:30.869Z,97966.27
2017-07-06T07:49:58.434Z,97969.75
2017-07-06T07:52:25.862Z,97969.22
2017-07-06T07:54:53.300Z,97967.85
2017-07-06T07:57:20.760Z,97969.67
2017-07-06T07:59:48.183Z,97973.92
2017-07-06T08:02:15.640Z,97976.75
2017-07-06T08:04:43.075Z,97972.82
2017-07-06T08:07:10.680Z,97974.67
2017-07-06T08:09:38.173Z,97975.09
2017-07-06T08:12:05.605Z,97973.55
2017-07-06T08:14:33.032Z,97976.79
2017-07-06T08:17:00.494Z,97973.25
2017-07-06T08:19:27.913Z,97962.62
2017-07-06T08:21:55.353Z,97969.50
2017-07-06T08:24:22.753Z,97964.39
2017-07-06T08:26:50.289Z,97968.16
2017-07-06T08:29:17.849Z,97966.02
2017-07-06T08:31:45.253Z,97957.55
2017-07-06T08:34:12.671Z,97960.89
2017-07-06T08:36:40.112Z,97962.28
2017-07-06T08:39:07.540Z,97958.73
2017-07-06T08:41:34.999Z,97963.31
2017-07-06T08:44:02.410Z,97966.47
2017-07-06T08:46:29.961Z,97960.92
2017-07-06T08:48:57.397Z,97961.53
2017-07-06T08:51:25.113Z,97957.56
2017-07-06T08:53:52.548Z,97962.31
2017-07-06T08:56:19.992Z,97953.61
2017-07-06T08:58:47.401Z,97955.16
2017-07-06T09:01:14.856Z,97947.66
2017-07-06T09:03:42.272Z,97949.66
2017-07-06T09:06:09.821Z,97945.48
2017-07-06T09:08:37.351Z,97953.17
2017-07-06T09:11:04.749Z,97947.99
2017-07-06T09:13:32.182Z,97948.51
2017-07-06T09:15:59.625Z,97946.86
2017-07-06T09:18:27.064Z,97948.20
2017-07-06T09:20:54.480Z,97946.39
2017-07-06T09:23:21.928Z,97937.28
2017-07-06T09:25:49.388Z,97944.95
2017-07-06T09:28:16.802Z,97939.49
2017-07-06T09:30:44.261Z,97942.62
2017-07-06T09:33:11.695Z,97943.08
2017-07-06T09:35:39.114Z,97941.19
2017-07-06T09:38:06.564Z,97944.27
2017-07-06T09:40:34.065Z,97939.85
2017-07-06T09:43:01.467Z,97943.45
2017-07-06T09:45:29.024Z,97939.12
2017-07-06T09:47:56.475Z,97943.96
2017-07-06T09:50:23.939Z,97940.02
2017-07-06T09:52:51.371Z,97941.38
2017-07-06T09:55:18.800Z,97936.84
2017-07-06T09:57:46.229Z,97934.16
2017-07-06T10:00:13.682Z,97936.20
2017-07-06T10:02:41.109Z,97932.08
2017-07-06T10:05:08.522Z,97930.22
2017-07-06T10:07:35.993Z,97928.43
2017-07-06T10:10:03.398Z,97919.23
2017-07-06T10:12:30.827Z,97920.35
2017-07-06T10:14:58.388Z,97918.86
2017-07-06T10:17:25.812Z,97916.12
2017-07-06T10:19:53.238Z,97912.80
2017-07-06T10:22:21.215Z,97910.34
2017-07-06T10:24:48.713Z,97909.64
2017-07-06T10:27:16.156Z,97911.19
2017-07-06T10:29:43.653Z,97910.45
2017-07-06T10:32:11.059Z,97904.52
2017-07-06T10:34:38.526Z,97909.89
2017-07-06T10:37:05.957Z,97906.06
2017-07-06T10:39:33.402Z,97898.72
2017-07-06T10:42:00.855Z,97904.30
2017-07-06T10:49:47.533Z,97901.88
2017-07-06T10:52:14.981Z,97907.43
2017-07-06T10:54:42.467Z,97906.70
2017-07-06T10:57:09.906Z,97908.17
2017-07-06T10:59:37.325Z,97901.55
2017-07-06T11:02:04.857Z,97906.56
2017-07-06T11:04:32.392Z,97905.28
2017-07-06T11:06:59.832Z,97898.37
2017-07-06T11:09:27.293Z,97898.12
2017-07-06T11:11:54.715Z,97898.63
2017-07-06T11:14:22.158Z,97893.83
2017-07-06T11:16:49.582Z,97896.77
2017-07-06T11:19:17.033Z,97890.95
2017-07-06T11:21:44.443Z,97892.19
2017-07-06T11:24:12.157Z,97891.95
2017-07-06T11:26:39.633Z,97888.15
2017-07-06T11:29:07.078Z,97882.34
2017-07-06T11:31:34.578Z,97884.46
2017-07-06T11:34:02.012Z,97878.15
2017-07-06T11:36:29.500Z,97885.09
2017-07-06T11:38:56.942Z,97875.94
2017-07-06T11:41:24.404Z,97869.98
2017-07-06T11:43:51.808Z,97876.66
2017-07-06T11:46:19.283Z,97878.47
2017-07-06T11:48:46.689Z,97868.80
2017-07-06T11:51:14.995Z,97866.94
2017-07-06T11:53:42.470Z,97863.48
2017-07-06T11:56:10.167Z,97866.60
2017-07-06T11:58:37.642Z,97859.20
2017-07-06T12:01:05.085Z,97856.09
2017-07-06T12:03:33.294Z,97855.68
2017-07-06T12:06:00.765Z,97848.38
2017-07-06T12:08:28.278Z,97847.62
2017-07-06T12:10:55.797Z,97840.55
2017-07-06T12:13:23.239Z,97844.27
2017-07-06T12:15:50.652Z,97837.36
2017-07-06T12:18:18.112Z,97841.80
2017-07-06T12:20:45.561Z,97837.53
2017-07-06T12:23:12.964Z,97841.47
2017-07-06T12:25:40.405Z,97839.49
2017-07-06T12:28:07.817Z,97837.15
2017-07-06T12:30:35.257Z,97833.20
2017-07-06T12:33:02.692Z,97831.39
2017-07-06T12:35:30.128Z,97833.84
2017-07-06T12:37:57.579Z,97832.66
2017-07-06T12:40:25.045Z,97829.92
2017-07-06T12:42:52.468Z,97832.97
2017-07-06T12:45:19.906Z,97828.56
2017-07-06T12:47:47.345Z,97825.36
2017-07-06T12:50:14.756Z,97823.78
2017-07-06T12:52:42.224Z,97825.16
2017-07-06T12:55:09.665Z,97825.16
2017-07-06T12:57:37.072Z,97826.61
2017-07-06T13:00:04.525Z,97825.55
2017-07-06T13:02:31.965Z,97823.34
2017-07-06T13:04:59.448Z,97820.11
2017-07-06T13:07:26.881Z,97825.73
2017-07-06T13:09:54.348Z,97830.66
2017-07-06T13:12:21.785Z,97823.85
2017-07-06T13:14:49.300Z,97814.58
2017-07-06T13:17:16.794Z,97809.05
2017-07-06T13:19:44.230Z,97815.36
2017-07-06T13:22:11.688Z,97818.39
2017-07-06T13:24:39.118Z,97817.72
2017-07-06T13:27:06.552Z,97817.23
2017-07-06T13:29:34.002Z,97803.34
2017-07-06T13:32:01.422Z,97810.55
2017-07-06T13:34:29.825Z,97811.94
2017-07-06T13:36:57.297Z,97818.71
2017-07-06T13:39:24.745Z,97827.47
2017-07-06T13:41:52.240Z,97838.83
2017-07-06T13:44:19.637Z,97837.97
2017-07-06T13:46:47.155Z,97835.73
2017-07-06T13:49:14.580Z,97836.92
2017-07-06T13:51:42.010Z,97826.70
2017-07-06T13:54:09.486Z,97823.48
2017-07-06T14:01:56.323Z,97811.42
2017-07-06T14:04:24.232Z,97817.23
2017-07-06T14:06:51.695Z,97821.87
2017-07-06T14:09:19.107Z,97826.31
2017-07-06T14:11:47.226Z,97838.36
2017-07-06T14:14:14.691Z,97845.84
2017-07-06T14:16:42.197Z,97842.86
2017-07-06T14:19:09.794Z,97834.71
2017-07-06T14:21:37.293Z,97838.72
2017-07-06T14:24:04.706Z,97821.13
2017-07-06T14:26:32.190Z,97813.84
2017-07-06T14:28:59.628Z,97808.86
2017-07-06T14:31:27.082Z,97799.56
2017-07-06T14:33:54.546Z,97799.92
2017-07-06T14:36:21.968Z,97802.52
2017-07-06T14:38:49.434Z,97807.31
2017-07-06T14:41:16.841Z,97808.68
2017-07-06T14:43:44.264Z,97812.22
2017-07-06T14:46:11.700Z,97811.02
2017-07-06T14:48:39.134Z,97800.51
2017-07-06T14:51:06.586Z,97788.86
2017-07-06T14:53:34.127Z,97788.53
2017-07-06T14:56:01.723Z,97793.91
2017-07-06T14:58:29.171Z,97799.36
2017-07-06T15:00:56.643Z,97791.89
2017-07-06T15:03:24.159Z,97793.66
2017-07-06T15:05:51.730Z,97793.67
2017-07-06T15:08:19.234Z,97803.19
2017-07-06T15:10:46.779Z,97800.06
2017-07-06T15:13:14.197Z,97797.23
2017-07-06T15:15:41.666Z,97799.44
2017-07-06T15:18:09.153Z,97807.67
2017-07-06T15:20:36.609Z,97800.46
2017-07-06T15:23:04.065Z,97796.09
2017-07-06T15:25:31.500Z,97784.55
2017-07-06T15:27:58.910Z,97782.91
2017-07-06T15:30:26.328Z,97782.13
2017-07-06T15:32:53.757Z,97782.45
2017-07-06T15:35:21.230Z,97774.92
2017-07-06T15:37:48.747Z,97775.89
2017-07-06T15:40:16.244Z,97776.27
2017-07-06T15:42:43.705Z,97774.04
2017-07-06T15:45:11.217Z,97769.38
2017-07-06T15:47:38.680Z,97767.82
2017-07-06T15:50:06.118Z,97769.05
2017-07-06T15:52:33.528Z,97770.88
2017-07-06T15:55:00.980Z,97765.06
2017-07-06T15:57:28.404Z,97764.22
2017-07-06T15:59:55.806Z,97757.50
2017-07-06T16:02:23.267Z,97754.64
2017-07-06T16:04:50.960Z,97753.86
2017-07-06T16:07:18.405Z,97747.86
2017-07-06T16:09:45.825Z,97747.23
2017-07-06T16:12:13.274Z,97752.03
2017-07-06T16:14:40.691Z,97747.30
2017-07-06T16:17:08.095Z,97739.33
2017-07-06T16:19:35.529Z,97731.45
2017-07-06T16:24:36.928Z,97722.83
2017-07-06T16:27:04.381Z,97718.95
2017-07-06T16:29:31.885Z,97719.72
2017-07-06T16:31:59.361Z,97719.79
2017-07-06T16:34:26.802Z,97718.55
2017-07-06T16:36:54.236Z,97717.07
2017-07-06T16:39:21.686Z,97715.56
2017-07-06T16:41:49.097Z,97714.01
2017-07-06T16:44:16.512Z,97715.35
2017-07-06T16:46:43.956Z,97714.65
2017-07-06T16:49:11.376Z,97714.97
2017-07-06T16:51:38.836Z,97713.36
2017-07-06T16:54:06.240Z,97712.61
2017-07-06T16:56:34.481Z,97705.30
2017-07-06T16:59:01.933Z,97703.88
2017-07-06T17:01:29.375Z,97699.91
2017-07-06T17:03:56.836Z,97696.97
2017-07-06T17:06:24.310Z,97695.49
2017-07-06T17:08:52.692Z,97690.42
2017-07-06T17:11:20.146Z,97687.48
2017-07-06T17:13:47.559Z,97682.03
2017-07-06T17:16:15.020Z,97678.10
2017-07-06T17:18:42.473Z,97680.39
2017-07-06T17:21:09.892Z,97676.52
2017-07-06T17:23:37.429Z,97676.07
2017-07-06T17:26:04.932Z,97676.86
2017-07-06T17:28:32.347Z,97677.87
2017-07-06T17:30:59.836Z,97677.06
2017-07-06T17:33:27.279Z,97672.69
2017-07-06T17:35:54.694Z,97676.28
2017-07-06T17:38:22.124Z,97679.58
2017-07-06T17:40:49.583Z,97678.81
2017-07-06T17:43:16.993Z,97682.62
2017-07-06T17:45:44.434Z,97690.56
2017-07-06T17:48:11.864Z,97691.75
2017-07-06T17:50:39.414Z,97691.20
2017-07-06T17:53:06.872Z,97692.88
2017-07-06T17:55:34.359Z,97688.92
2017-07-06T17:58:01.832Z,97695.60
2017-07-06T18:00:29.274Z,97699.26
2017-07-06T18:02:56.749Z,97695.03
2017-07-06T18:05:24.205Z,97688.52
2017-07-06T18:07:51.634Z,97685.59
2017-07-06T18:10:19.062Z,97682.80
2017-07-06T18:12:46.525Z,97684.13
2017-07-06T18:15:13.949Z,97680.63
2017-07-06T18:17:41.385Z,97683.55
2017-07-06T18:20:08.820Z,97681.38
2017-07-06T18:22:36.341Z,97680.94
2017-07-06T18:25:03.833Z,97683.41
2017-07-06T18:27:31.302Z,97682.72
2017-07-06T18:29:58.758Z,97684.33
2017-07-06T18:32:26.216Z,97685.95
2017-07-06T18:34:53.937Z,97683.94
2017-07-06T18:37:21.375Z,97682.73
2017-07-06T18:39:48.840Z,97689.93
2017-07-06T18:42:16.263Z,97694.13
2017-07-06T18:44:43.697Z,97705.63
2017-07-06T18:47:11.149Z,97709.61
2017-07-06T18:49:38.594Z,97703.27
2017-07-06T18:52:05.998Z,97708.54
2017-07-06T18:54:33.453Z,97708.17
2017-07-06T18:57:00.872Z,97708.38
2017-07-06T18:59:28.313Z,97701.91
2017-07-06T19:01:55.771Z,97705.55
2017-07-06T19:04:23.203Z,97702.23
2017-07-06T19:06:50.659Z,97705.91
2017-07-06T19:09:18.140Z,97707.80
2017-07-06T19:11:45.581Z,97719.23
2017-07-06T19:14:13.066Z,97710.49
2017-07-06T19:16:40.489Z,97718.17
2017-07-06T19:19:07.926Z,97708.28
2017-07-06T19:21:35.374Z,97708.88
2017-07-06T19:24:02.793Z,97714.41
2017-07-06T19:26:30.224Z,97718.98
2017-07-06T19:28:57.653Z,97717.41
2017-07-06T19:31:25.097Z,97719.05
2017-07-06T19:33:52.505Z,97729.53
2017-07-06T19:36:19.981Z,97736.31
2017-07-06T19:38:47.532Z,97733.73
2017-07-06T19:41:14.998Z,97729.02
2017-07-06T19:43:42.488Z,97733.03
2017-07-06T19:46:09.885Z,97737.37
2017-07-06T19:48:37.332Z,97737.02
2017-07-06T19:51:04.750Z,97737.62
2017-07-06T19:53:32.168Z,97742.91
2017-07-06T19:55:59.958Z,97749.81
2017-07-06T19:58:27.358Z,97747.08
2017-07-06T20:00:54.858Z,97740.78
2017-07-06T20:03:22.304Z,97741.55
2017-07-06T20:05:49.772Z,97745.92
2017-07-06T20:08:17.203Z,97737.65
2017-07-06T20:10:44.621Z,97747.31
2017-07-06T20:13:12.065Z,97745.18
2017-07-06T20:15:39.485Z,97752.08
2017-07-06T20:18:06.950Z,97750.30
2017-07-06T20:20:34.373Z,97743.44
2017-07-06T20:23:01.804Z,97748.36
2017-07-06T20:25:29.265Z,97749.14
2017-07-06T20:27:56.687Z,97742.27
2017-07-06T20:30:24.086Z,97737.91
2017-07-06T20:32:51.576Z,97735.54
2017-07-06T20:35:19.048Z,97733.39
2017-07-06T20:37:46.519Z,97739.06
2017-07-06T20:40:13.965Z,97734.73
2017-07-06T20:42:41.367Z,97740.05
2017-07-06T20:45:08.831Z,97750.91
2017-07-06T20:47:36.624Z,97753.84
2017-07-06T20:50:04.069Z,97755.81
2017-07-06T20:52:31.539Z,97764.27
2017-07-06T20:55:00.198Z,97763.22
2017-07-06T20:57:27.678Z,97765.75
2017-07-06T20:59:55.088Z,97762.19
2017-07-06T21:02:22.517Z,97759.39
2017-07-06T21:04:49.978Z,97768.65
2017-07-06T21:07:18.096Z,97773.39
2017-07-06T21:09:45.612Z,97765.11
2017-07-06T21:12:13.054Z,97770.42
2017-07-06T21:14:40.499Z,97771.78
2017-07-06T21:17:07.972Z,97773.91
2017-07-06T21:19:35.395Z,97774.28
2017-07-06T21:22:02.806Z,97788.84
2017-07-06T21:24:30.287Z,97792.63
2017-07-06T21:26:57.755Z,97791.97
2017-07-06T21:29:25.258Z,97783.03
2017-07-06T21:31:52.692Z,97785.08
2017-07-06T21:34:20.139Z,97787.83
2017-07-06T21:36:47.565Z,97783.84
2017-07-06T21:39:14.995Z,97792.52
2017-07-06T21:41:42.408Z,97794.47
2017-07-06T21:44:09.812Z,97778.36
2017-07-06T21:46:37.277Z,97777.82
2017-07-06T21:49:04.695Z,97771.33
2017-07-06T21:51:32.142Z,97773.02
2017-07-06T21:53:59.548Z,97774.10
2017-07-06T21:56:26.985Z,97770.47
2017-07-06T21:58:54.434Z,97767.73
2017-07-06T22:01:21.854Z,97769.85
2017-07-06T22:03:49.289Z,97767.19
2017-07-06T22:06:16.752Z,97765.11
2017-07-06T22:08:44.157Z,97777.17
2017-07-06T22:11:11.616Z,97766.41
2017-07-06T22:13:39.025Z,97769.13
2017-07-06T22:16:06.456Z,97774.68
2017-07-06T22:18:33.896Z,97773.14
2017-07-06T22:21:01.905Z,97773.98
2017-07-06T22:23:29.481Z,97781.46
2017-07-06T22:25:56.900Z,97781.62
2017-07-06T22:28:24.332Z,97777.45
2017-07-06T22:30:51.772Z,97773.39
2017-07-06T22:33:19.209Z,97767.95
2017-07-06T22:35:46.704Z,97775.08
2017-07-06T22:38:14.125Z,97771.08
2017-07-06T22:40:41.549Z,97768.63
2017-07-06T22:43:09.036Z,97776.34
2017-07-06T22:45:36.473Z,97780.19
2017-07-06T22:48:03.936Z,97775.53
2017-07-06T22:50:31.357Z,97781.66
2017-07-06T22:52:58.789Z,97778.53
2017-07-06T22:55:26.201Z,97775.17
2017-07-06T22:57:53.642Z,97775.97
2017-07-06T23:00:21.113Z,97768.55
2017-07-06T23:02:48.515Z,97769.15
2017-07-06T23:05:15.939Z,97759.52
2017-07-06T23:07:43.365Z,97765.41
2017-07-06T23:10:10.808Z,97760.67
2017-07-06T23:12:38.240Z,97762.61
2017-07-06T23:15:05.696Z,97759.86
2017-07-06T23:17:33.126Z,97753.52
2017-07-06T23:20:00.540Z,97758.84
2017-07-06T23:22:27.994Z,97760.09
2017-07-06T23:24:55.417Z,97763.70
2017-07-06T23:27:22.844Z,97753.76
2017-07-06T23:29:50.291Z,97750.22
2017-07-06T23:32:17.845Z,97746.66
2017-07-06T23:34:45.271Z,97748.68
2017-07-06T23:37:12.705Z,97741.38
2017-07-06T23:39:40.206Z,97744.70
2017-07-06T23:42:07.616Z,97746.19
2017-07-06T23:44:35.062Z,97745.25
2017-07-06T23:47:02.462Z,97735.06
2017-07-06T23:49:29.933Z,97742.51
2017-07-06T23:51:57.357Z,97736.06
2017-07-06T23:54:24.762Z,97736.48
2017-07-06T23:56:52.220Z,97721.75
2017-07-06T23:59:19.637Z,97718.61
